createdAt,value
2022-11-24T00:10:47.598Z,12.70
2022-11-24T00:24:47.697Z,11.10
2022-11-24T00:38:47.693Z,10.20
2022-11-24T00:52:47.706Z,9.20
2022-11-24T01:06:47.681Z,9.10
2022-11-24T01:20:47.722Z,8.30
2022-11-24T01:34:47.701Z,7.80
2022-11-24T01:48:47.743Z,7.10
2022-11-24T02:02:47.861Z,6.70
2022-11-24T02:16:47.784Z,6.50
2022-11-24T02:30:47.832Z,5.60
2022-11-24T02:44:47.804Z,5.00
2022-11-24T02:52:56.276Z,5.00
2022-11-24T03:06:56.304Z,4.50
2022-11-24T03:20:56.303Z,4.30
2022-11-24T03:34:56.484Z,3.90
2022-11-24T03:48:56.442Z,3.70
2022-11-24T04:02:56.554Z,3.50
2022-11-24T04:16:56.687Z,3.10
2022-11-24T04:30:56.694Z,2.90
2022-11-24T04:44:56.703Z,2.60
2022-11-24T04:58:56.846Z,2.50
2022-11-24T05:12:56.979Z,2.30
2022-11-24T05:26:57.039Z,2.20
2022-11-24T05:40:57.094Z,2.50
2022-11-24T05:54:57.212Z,2.00
2022-11-24T06:08:57.384Z,1.90
2022-11-24T06:23:57.730Z,2.00
2022-11-24T06:38:57.729Z,1.90
2022-11-24T06:54:57.790Z,2.00
2022-11-24T07:09:57.801Z,2.10
2022-11-24T07:24:57.892Z,4.30
2022-11-24T07:39:57.917Z,4.90
2022-11-24T07:54:57.928Z,6.40
2022-11-24T08:09:57.942Z,6.30
2022-11-24T08:24:57.940Z,6.30
2022-11-24T08:39:58.008Z,5.90
2022-11-24T08:54:58.057Z,5.35
2022-11-24T09:09:58.074Z,5.30
2022-11-24T09:24:58.094Z,4.70
2022-11-24T09:39:58.112Z,4.60
2022-11-24T09:54:58.111Z,4.60
2022-11-24T10:09:58.166Z,3.90
2022-11-24T10:24:58.327Z,3.90
2022-11-24T10:40:00.176Z,3.50
2022-11-24T10:54:58.338Z,3.50
2022-11-24T11:09:58.344Z,3.10
2022-11-24T11:24:58.351Z,3.10
2022-11-24T11:40:58.384Z,2.90
2022-11-24T11:55:58.360Z,2.70
2022-11-24T12:10:58.602Z,2.60
2022-11-24T12:25:59.022Z,2.50
2022-11-24T12:41:11.980Z,2.50
2022-11-24T12:51:46.229Z,2.25
2022-11-24T13:06:49.227Z,2.00
2022-11-24T13:21:46.315Z,2.30
2022-11-24T13:36:46.730Z,1.70
2022-11-24T13:51:46.653Z,2.00
2022-11-24T14:06:46.860Z,2.00
2022-11-24T14:21:47.017Z,1.70
2022-11-24T14:36:47.092Z,1.60
2022-11-24T14:51:47.126Z,1.40
2022-11-24T15:06:47.097Z,1.65
2022-11-24T15:21:47.257Z,1.60
2022-11-24T15:36:47.262Z,1.50
2022-11-24T15:53:47.272Z,1.60
2022-11-24T16:08:47.291Z,1.90
2022-11-24T16:24:47.337Z,2.05
2022-11-24T16:38:47.354Z,2.15
2022-11-24T16:52:47.507Z,2.55
2022-11-24T17:06:47.461Z,2.75
2022-11-24T17:20:47.485Z,2.60
2022-11-24T17:34:47.530Z,2.65
2022-11-24T17:48:47.545Z,2.90
2022-11-24T18:02:47.678Z,3.10
2022-11-24T18:16:47.847Z,3.00
2022-11-24T18:30:47.837Z,3.40
2022-11-24T18:44:52.537Z,3.70
2022-11-24T18:58:47.881Z,3.90
2022-11-24T19:12:47.992Z,4.20
2022-11-24T19:26:47.983Z,4.50
2022-11-24T19:40:47.997Z,4.40
2022-11-24T19:54:47.968Z,5.00
2022-11-24T20:08:47.974Z,5.90
2022-11-24T20:22:48.018Z,8.20
2022-11-24T20:36:48.021Z,9.50
2022-11-24T20:50:51.249Z,8.90
2022-11-24T21:04:48.033Z,8.70
2022-11-24T21:18:48.071Z,8.20
2022-11-24T21:32:48.077Z,7.80
2022-11-24T21:46:52.563Z,7.10
2022-11-24T22:00:48.254Z,8.00
2022-11-24T22:14:48.215Z,7.90
2022-11-24T22:28:48.220Z,7.50
2022-11-24T22:42:48.255Z,7.00
2022-11-24T22:56:48.207Z,6.60
2022-11-24T23:10:48.264Z,6.30
2022-11-24T23:24:48.233Z,6.40
2022-11-24T23:38:48.220Z,5.40
2022-11-24T23:52:48.273Z,5.40
